sensor_id;sensor_type;location;lat;lon;timestamp;P1;durP1;ratioP1;P2;durP2;ratioP2
56319;SDS011;42226;42.382;23.748;2023-07-13T00:00:28;6.03;;;5.15;;
56319;SDS011;42226;42.382;23.748;2023-07-13T00:02:58;5.68;;;4.88;;
56319;SDS011;42226;42.382;23.748;2023-07-13T00:05:25;5.90;;;5.32;;
56319;SDS011;42226;42.382;23.748;2023-07-13T00:07:53;5.68;;;5.13;;
56319;SDS011;42226;42.382;23.748;2023-07-13T00:10:21;6.32;;;5.63;;
56319;SDS011;42226;42.382;23.748;2023-07-13T00:12:49;5.53;;;5.03;;
56319;SDS011;42226;42.382;23.748;2023-07-13T00:15:22;5.72;;;5.13;;
56319;SDS011;42226;42.382;23.748;2023-07-13T00:17:52;6.60;;;5.28;;
56319;SDS011;42226;42.382;23.748;2023-07-13T00:20:21;5.55;;;5.05;;
56319;SDS011;42226;42.382;23.748;2023-07-13T00:22:54;5.35;;;4.78;;
56319;SDS011;42226;42.382;23.748;2023-07-13T00:25:23;6.70;;;5.30;;
56319;SDS011;42226;42.382;23.748;2023-07-13T00:27:51;7.82;;;5.60;;
56319;SDS011;42226;42.382;23.748;2023-07-13T00:30:19;5.30;;;4.80;;
56319;SDS011;42226;42.382;23.748;2023-07-13T00:32:46;5.85;;;5.35;;
56319;SDS011;42226;42.382;23.748;2023-07-13T00:35:14;5.57;;;5.07;;
56319;SDS011;42226;42.382;23.748;2023-07-13T00:37:42;5.30;;;4.80;;
56319;SDS011;42226;42.382;23.748;2023-07-13T00:40:11;6.03;;;5.53;;
56319;SDS011;42226;42.382;23.748;2023-07-13T00:42:40;6.35;;;5.72;;
56319;SDS011;42226;42.382;23.748;2023-07-13T00:46:09;5.88;;;5.25;;
56319;SDS011;42226;42.382;23.748;2023-07-13T00:47:55;8.48;;;5.20;;
56319;SDS011;42226;42.382;23.748;2023-07-13T00:50:23;5.78;;;4.57;;
56319;SDS011;42226;42.382;23.748;2023-07-13T00:52:51;6.10;;;5.18;;
56319;SDS011;42226;42.382;23.748;2023-07-13T00:55:23;5.75;;;5.13;;
56319;SDS011;42226;42.382;23.748;2023-07-13T00:57:50;5.93;;;5.30;;
56319;SDS011;42226;42.382;23.748;2023-07-13T01:00:18;5.40;;;4.90;;
56319;SDS011;42226;42.382;23.748;2023-07-13T01:02:47;5.78;;;5.22;;
56319;SDS011;42226;42.382;23.748;2023-07-13T01:05:17;5.35;;;4.88;;
56319;SDS011;42226;42.382;23.748;2023-07-13T01:07:48;6.88;;;4.80;;
56319;SDS011;42226;42.382;23.748;2023-07-13T01:10:21;5.70;;;5.15;;
56319;SDS011;42226;42.382;23.748;2023-07-13T01:12:48;6.20;;;4.97;;
56319;SDS011;42226;42.382;23.748;2023-07-13T01:18:39;7.60;;;5.10;;
56319;SDS011;42226;42.382;23.748;2023-07-13T01:21:08;5.53;;;5.03;;
56319;SDS011;42226;42.382;23.748;2023-07-13T01:23:38;5.75;;;5.07;;
56319;SDS011;42226;42.382;23.748;2023-07-13T01:26:06;5.65;;;5.15;;
56319;SDS011;42226;42.382;23.748;2023-07-13T01:28:37;5.97;;;5.35;;
56319;SDS011;42226;42.382;23.748;2023-07-13T01:31:04;5.88;;;5.28;;
56319;SDS011;42226;42.382;23.748;2023-07-13T01:33:36;5.45;;;5.05;;
56319;SDS011;42226;42.382;23.748;2023-07-13T01:36:07;6.32;;;5.30;;
56319;SDS011;42226;42.382;23.748;2023-07-13T01:38:37;5.78;;;5.28;;
56319;SDS011;42226;42.382;23.748;2023-07-13T01:41:06;5.68;;;5.10;;
56319;SDS011;42226;42.382;23.748;2023-07-13T01:43:33;5.60;;;5.10;;
56319;SDS011;42226;42.382;23.748;2023-07-13T01:46:01;6.45;;;4.82;;
56319;SDS011;42226;42.382;23.748;2023-07-13T01:48:28;6.20;;;5.30;;
56319;SDS011;42226;42.382;23.748;2023-07-13T01:50:55;6.30;;;5.70;;
56319;SDS011;42226;42.382;23.748;2023-07-13T01:53:24;6.18;;;5.60;;
56319;SDS011;42226;42.382;23.748;2023-07-13T01:55:52;7.45;;;5.22;;
56319;SDS011;42226;42.382;23.748;2023-07-13T01:58:20;5.50;;;5.00;;
56319;SDS011;42226;42.382;23.748;2023-07-13T02:00:48;6.97;;;5.13;;
56319;SDS011;42226;42.382;23.748;2023-07-13T02:03:17;9.77;;;5.60;;
56319;SDS011;42226;42.382;23.748;2023-07-13T02:05:45;6.57;;;5.97;;
56319;SDS011;42226;42.382;23.748;2023-07-13T02:08:12;5.97;;;5.47;;
56319;SDS011;42226;42.382;23.748;2023-07-13T02:10:40;6.00;;;5.50;;
56319;SDS011;42226;42.382;23.748;2023-07-13T02:13:07;5.68;;;5.18;;
56319;SDS011;42226;42.382;23.748;2023-07-13T02:15:37;6.20;;;5.60;;
56319;SDS011;42226;42.382;23.748;2023-07-13T02:18:06;6.00;;;5.50;;
56319;SDS011;42226;42.382;23.748;2023-07-13T02:20:37;6.18;;;5.57;;
56319;SDS011;42226;42.382;23.748;2023-07-13T02:23:03;7.05;;;5.75;;
56319;SDS011;42226;42.382;23.748;2023-07-13T02:25:30;7.25;;;5.60;;
56319;SDS011;42226;42.382;23.748;2023-07-13T02:27:57;6.00;;;4.97;;
56319;SDS011;42226;42.382;23.748;2023-07-13T02:30:26;7.13;;;5.45;;
56319;SDS011;42226;42.382;23.748;2023-07-13T02:32:55;6.78;;;5.75;;
56319;SDS011;42226;42.382;23.748;2023-07-13T02:35:24;8.88;;;5.70;;
56319;SDS011;42226;42.382;23.748;2023-07-13T02:37:50;6.18;;;4.90;;
56319;SDS011;42226;42.382;23.748;2023-07-13T02:40:18;7.90;;;5.47;;
56319;SDS011;42226;42.382;23.748;2023-07-13T02:42:46;5.82;;;5.22;;
56319;SDS011;42226;42.382;23.748;2023-07-13T02:45:13;7.15;;;5.35;;
56319;SDS011;42226;42.382;23.748;2023-07-13T02:47:41;5.82;;;5.25;;
56319;SDS011;42226;42.382;23.748;2023-07-13T02:50:08;6.50;;;6.00;;
56319;SDS011;42226;42.382;23.748;2023-07-13T02:52:36;5.95;;;5.40;;
56319;SDS011;42226;42.382;23.748;2023-07-13T02:55:03;5.68;;;5.18;;
56319;SDS011;42226;42.382;23.748;2023-07-13T02:57:31;6.88;;;5.43;;
56319;SDS011;42226;42.382;23.748;2023-07-13T03:00:00;7.15;;;5.70;;
56319;SDS011;42226;42.382;23.748;2023-07-13T03:02:32;5.70;;;5.20;;
56319;SDS011;42226;42.382;23.748;2023-07-13T03:05:00;6.18;;;5.57;;
56319;SDS011;42226;42.382;23.748;2023-07-13T03:07:27;6.63;;;6.13;;
56319;SDS011;42226;42.382;23.748;2023-07-13T03:09:57;5.40;;;4.90;;
56319;SDS011;42226;42.382;23.748;2023-07-13T03:12:25;7.03;;;6.30;;
56319;SDS011;42226;42.382;23.748;2023-07-13T03:14:53;6.38;;;5.78;;
56319;SDS011;42226;42.382;23.748;2023-07-13T03:17:20;7.03;;;5.85;;
56319;SDS011;42226;42.382;23.748;2023-07-13T03:19:48;5.90;;;5.30;;
56319;SDS011;42226;42.382;23.748;2023-07-13T03:22:18;6.13;;;5.53;;
56319;SDS011;42226;42.382;23.748;2023-07-13T03:24:48;6.10;;;5.50;;
56319;SDS011;42226;42.382;23.748;2023-07-13T03:27:16;6.53;;;5.68;;
56319;SDS011;42226;42.382;23.748;2023-07-13T03:29:44;7.20;;;5.82;;
56319;SDS011;42226;42.382;23.748;2023-07-13T03:32:11;5.82;;;5.32;;
56319;SDS011;42226;42.382;23.748;2023-07-13T03:34:39;6.10;;;5.50;;
56319;SDS011;42226;42.382;23.748;2023-07-13T03:37:06;6.47;;;5.57;;
56319;SDS011;42226;42.382;23.748;2023-07-13T03:39:33;6.63;;;6.03;;
56319;SDS011;42226;42.382;23.748;2023-07-13T03:42:01;7.35;;;6.30;;
56319;SDS011;42226;42.382;23.748;2023-07-13T03:44:29;6.68;;;6.05;;
56319;SDS011;42226;42.382;23.748;2023-07-13T03:46:57;6.28;;;5.65;;
56319;SDS011;42226;42.382;23.748;2023-07-13T03:49:23;6.57;;;6.00;;
56319;SDS011;42226;42.382;23.748;2023-07-13T03:51:50;6.15;;;5.50;;
56319;SDS011;42226;42.382;23.748;2023-07-13T03:54:17;6.47;;;5.95;;
56319;SDS011;42226;42.382;23.748;2023-07-13T03:56:45;7.63;;;6.47;;
56319;SDS011;42226;42.382;23.748;2023-07-13T03:59:12;6.55;;;5.95;;
56319;SDS011;42226;42.382;23.748;2023-07-13T04:01:40;6.40;;;5.80;;
56319;SDS011;42226;42.382;23.748;2023-07-13T04:04:06;6.40;;;5.80;;
56319;SDS011;42226;42.382;23.748;2023-07-13T04:06:34;6.30;;;5.55;;
56319;SDS011;42226;42.382;23.748;2023-07-13T04:09:03;7.00;;;5.93;;
56319;SDS011;42226;42.382;23.748;2023-07-13T04:11:34;6.45;;;5.85;;
56319;SDS011;42226;42.382;23.748;2023-07-13T04:14:03;5.90;;;5.40;;
56319;SDS011;42226;42.382;23.748;2023-07-13T04:16:33;6.60;;;6.00;;
56319;SDS011;42226;42.382;23.748;2023-07-13T04:19:01;6.47;;;5.88;;
56319;SDS011;42226;42.382;23.748;2023-07-13T04:21:30;6.93;;;6.20;;
56319;SDS011;42226;42.382;23.748;2023-07-13T04:23:58;5.85;;;5.35;;
56319;SDS011;42226;42.382;23.748;2023-07-13T04:26:25;6.28;;;5.63;;
56319;SDS011;42226;42.382;23.748;2023-07-13T04:28:51;7.20;;;6.32;;
56319;SDS011;42226;42.382;23.748;2023-07-13T04:31:18;6.53;;;5.82;;
56319;SDS011;42226;42.382;23.748;2023-07-13T04:33:47;6.85;;;6.10;;
56319;SDS011;42226;42.382;23.748;2023-07-13T04:36:15;6.82;;;6.13;;
56319;SDS011;42226;42.382;23.748;2023-07-13T04:38:44;7.35;;;6.22;;
56319;SDS011;42226;42.382;23.748;2023-07-13T04:41:15;7.43;;;6.68;;
56319;SDS011;42226;42.382;23.748;2023-07-13T04:43:43;7.47;;;6.75;;
56319;SDS011;42226;42.382;23.748;2023-07-13T04:46:12;6.60;;;5.85;;
56319;SDS011;42226;42.382;23.748;2023-07-13T04:48:43;6.90;;;6.25;;
56319;SDS011;42226;42.382;23.748;2023-07-13T04:51:10;7.05;;;6.38;;
56319;SDS011;42226;42.382;23.748;2023-07-13T04:53:38;7.40;;;6.55;;
56319;SDS011;42226;42.382;23.748;2023-07-13T04:56:05;7.13;;;6.43;;
56319;SDS011;42226;42.382;23.748;2023-07-13T04:58:33;7.03;;;6.30;;
56319;SDS011;42226;42.382;23.748;2023-07-13T05:01:02;7.50;;;6.60;;
56319;SDS011;42226;42.382;23.748;2023-07-13T05:03:30;6.80;;;6.10;;
56319;SDS011;42226;42.382;23.748;2023-07-13T05:05:59;6.90;;;6.30;;
56319;SDS011;42226;42.382;23.748;2023-07-13T05:08:30;7.70;;;6.57;;
56319;SDS011;42226;42.382;23.748;2023-07-13T05:10:59;7.25;;;6.55;;
56319;SDS011;42226;42.382;23.748;2023-07-13T05:13:27;7.18;;;6.38;;
56319;SDS011;42226;42.382;23.748;2023-07-13T05:15:59;7.00;;;6.25;;
56319;SDS011;42226;42.382;23.748;2023-07-13T05:18:29;6.93;;;6.32;;
56319;SDS011;42226;42.382;23.748;2023-07-13T05:21:00;7.45;;;6.65;;
56319;SDS011;42226;42.382;23.748;2023-07-13T05:23:30;8.13;;;6.30;;
56319;SDS011;42226;42.382;23.748;2023-07-13T05:25:59;7.22;;;6.53;;
56319;SDS011;42226;42.382;23.748;2023-07-13T05:28:32;8.07;;;6.68;;
56319;SDS011;42226;42.382;23.748;2023-07-13T05:30:59;7.30;;;6.60;;
56319;SDS011;42226;42.382;23.748;2023-07-13T05:33:26;7.40;;;6.70;;
56319;SDS011;42226;42.382;23.748;2023-07-13T05:35:54;7.45;;;6.70;;
56319;SDS011;42226;42.382;23.748;2023-07-13T05:38:21;7.78;;;6.88;;
56319;SDS011;42226;42.382;23.748;2023-07-13T05:40:49;7.40;;;6.70;;
56319;SDS011;42226;42.382;23.748;2023-07-13T05:43:17;7.32;;;6.63;;
56319;SDS011;42226;42.382;23.748;2023-07-13T05:45:45;7.60;;;6.90;;
56319;SDS011;42226;42.382;23.748;2023-07-13T05:48:12;7.78;;;7.00;;
56319;SDS011;42226;42.382;23.748;2023-07-13T05:50:39;7.35;;;6.72;;
56319;SDS011;42226;42.382;23.748;2023-07-13T05:53:07;7.63;;;6.78;;
56319;SDS011;42226;42.382;23.748;2023-07-13T05:55:33;7.75;;;6.85;;
56319;SDS011;42226;42.382;23.748;2023-07-13T05:58:01;8.60;;;6.90;;
56319;SDS011;42226;42.382;23.748;2023-07-13T06:00:29;8.52;;;6.85;;
56319;SDS011;42226;42.382;23.748;2023-07-13T06:02:57;7.55;;;6.80;;
56319;SDS011;42226;42.382;23.748;2023-07-13T06:05:25;7.25;;;6.53;;
56319;SDS011;42226;42.382;23.748;2023-07-13T06:07:54;8.30;;;6.90;;
56319;SDS011;42226;42.382;23.748;2023-07-13T06:10:22;7.35;;;6.60;;
56319;SDS011;42226;42.382;23.748;2023-07-13T06:12:48;8.40;;;6.80;;
56319;SDS011;42226;42.382;23.748;2023-07-13T06:15:17;8.13;;;6.50;;
56319;SDS011;42226;42.382;23.748;2023-07-13T06:17:47;8.52;;;7.10;;
56319;SDS011;42226;42.382;23.748;2023-07-13T06:20:15;7.45;;;6.85;;
56319;SDS011;42226;42.382;23.748;2023-07-13T06:22:41;7.47;;;6.78;;
56319;SDS011;42226;42.382;23.748;2023-07-13T06:25:09;7.43;;;6.72;;
56319;SDS011;42226;42.382;23.748;2023-07-13T06:27:35;7.38;;;6.68;;
56319;SDS011;42226;42.382;23.748;2023-07-13T06:30:03;7.25;;;6.60;;
56319;SDS011;42226;42.382;23.748;2023-07-13T06:32:31;6.90;;;6.30;;
56319;SDS011;42226;42.382;23.748;2023-07-13T06:37:47;7.80;;;6.90;;
56319;SDS011;42226;42.382;23.748;2023-07-13T06:44:13;7.70;;;6.95;;
56319;SDS011;42226;42.382;23.748;2023-07-13T06:46:39;7.57;;;6.88;;
56319;SDS011;42226;42.382;23.748;2023-07-13T06:49:07;8.15;;;7.38;;
56319;SDS011;42226;42.382;23.748;2023-07-13T06:51:35;7.90;;;7.10;;
56319;SDS011;42226;42.382;23.748;2023-07-13T06:54:03;8.15;;;7.43;;
56319;SDS011;42226;42.382;23.748;2023-07-13T06:56:31;10.38;;;7.20;;
56319;SDS011;42226;42.382;23.748;2023-07-13T06:58:58;7.38;;;6.57;;
56319;SDS011;42226;42.382;23.748;2023-07-13T07:53:30;8.40;;;7.60;;
56319;SDS011;42226;42.382;23.748;2023-07-13T07:55:59;7.93;;;7.22;;
56319;SDS011;42226;42.382;23.748;2023-07-13T07:58:27;7.65;;;6.85;;
56319;SDS011;42226;42.382;23.748;2023-07-13T08:01:01;8.38;;;6.82;;
56319;SDS011;42226;42.382;23.748;2023-07-13T08:03:30;7.93;;;7.20;;
56319;SDS011;42226;42.382;23.748;2023-07-13T08:05:57;7.15;;;6.45;;
56319;SDS011;42226;42.382;23.748;2023-07-13T08:08:25;7.38;;;6.53;;
56319;SDS011;42226;42.382;23.748;2023-07-13T08:10:53;7.28;;;6.57;;
56319;SDS011;42226;42.382;23.748;2023-07-13T08:13:20;7.20;;;6.60;;
56319;SDS011;42226;42.382;23.748;2023-07-13T08:15:47;7.10;;;6.50;;
56319;SDS011;42226;42.382;23.748;2023-07-13T08:18:14;9.82;;;6.68;;
56319;SDS011;42226;42.382;23.748;2023-07-13T08:20:42;6.72;;;6.13;;
56319;SDS011;42226;42.382;23.748;2023-07-13T08:23:10;6.68;;;6.07;;
56319;SDS011;42226;42.382;23.748;2023-07-13T08:25:37;6.80;;;6.30;;
56319;SDS011;42226;42.382;23.748;2023-07-13T08:28:04;7.30;;;6.60;;
56319;SDS011;42226;42.382;23.748;2023-07-13T08:30:32;7.97;;;6.53;;
56319;SDS011;42226;42.382;23.748;2023-07-13T08:33:00;9.20;;;6.75;;
56319;SDS011;42226;42.382;23.748;2023-07-13T08:35:28;6.75;;;6.15;;
56319;SDS011;42226;42.382;23.748;2023-07-13T08:37:55;8.77;;;6.50;;
56319;SDS011;42226;42.382;23.748;2023-07-13T08:40:24;7.22;;;6.22;;
56319;SDS011;42226;42.382;23.748;2023-07-13T08:42:55;7.82;;;7.05;;
56319;SDS011;42226;42.382;23.748;2023-07-13T08:45:28;7.07;;;6.35;;
56319;SDS011;42226;42.382;23.748;2023-07-13T08:48:11;7.30;;;6.60;;
56319;SDS011;42226;42.382;23.748;2023-07-13T08:53:49;7.05;;;6.35;;
56319;SDS011;42226;42.382;23.748;2023-07-13T08:56:21;7.22;;;6.53;;
56319;SDS011;42226;42.382;23.748;2023-07-13T08:59:03;7.53;;;6.93;;
56319;SDS011;42226;42.382;23.748;2023-07-13T09:02:40;7.43;;;6.82;;
56319;SDS011;42226;42.382;23.748;2023-07-13T09:05:10;6.75;;;6.05;;
56319;SDS011;42226;42.382;23.748;2023-07-13T09:08:01;7.65;;;6.55;;
56319;SDS011;42226;42.382;23.748;2023-07-13T09:10:58;7.68;;;6.38;;
56319;SDS011;42226;42.382;23.748;2023-07-13T09:13:55;7.30;;;6.60;;
56319;SDS011;42226;42.382;23.748;2023-07-13T09:16:46;7.03;;;6.35;;
56319;SDS011;42226;42.382;23.748;2023-07-13T09:19:20;8.40;;;6.45;;
56319;SDS011;42226;42.382;23.748;2023-07-13T09:21:53;6.50;;;5.85;;
56319;SDS011;42226;42.382;23.748;2023-07-13T09:27:50;11.57;;;6.63;;
56319;SDS011;42226;42.382;23.748;2023-07-13T09:32:42;6.63;;;5.97;;
56319;SDS011;42226;42.382;23.748;2023-07-13T09:35:16;7.17;;;5.50;;
56319;SDS011;42226;42.382;23.748;2023-07-13T09:37:48;6.60;;;5.13;;
56319;SDS011;42226;42.382;23.748;2023-07-13T09:40:32;6.47;;;4.90;;
56319;SDS011;42226;42.382;23.748;2023-07-13T09:43:20;6.75;;;5.18;;
56319;SDS011;42226;42.382;23.748;2023-07-13T09:45:48;5.75;;;5.18;;
56319;SDS011;42226;42.382;23.748;2023-07-13T09:48:16;8.00;;;5.75;;
56319;SDS011;42226;42.382;23.748;2023-07-13T09:50:44;6.57;;;4.90;;
56319;SDS011;42226;42.382;23.748;2023-07-13T09:53:15;6.95;;;4.90;;
56319;SDS011;42226;42.382;23.748;2023-07-13T09:55:45;6.07;;;4.75;;
56319;SDS011;42226;42.382;23.748;2023-07-13T09:58:16;6.75;;;5.28;;
56319;SDS011;42226;42.382;23.748;2023-07-13T10:03:29;6.72;;;5.18;;
56319;SDS011;42226;42.382;23.748;2023-07-13T10:06:21;5.97;;;5.30;;
56319;SDS011;42226;42.382;23.748;2023-07-13T10:08:50;7.05;;;5.07;;
56319;SDS011;42226;42.382;23.748;2023-07-13T10:11:22;6.82;;;5.10;;
56319;SDS011;42226;42.382;23.748;2023-07-13T10:14:01;7.18;;;6.47;;
56319;SDS011;42226;42.382;23.748;2023-07-13T10:16:43;6.90;;;5.60;;
56319;SDS011;42226;42.382;23.748;2023-07-13T10:19:25;8.73;;;5.82;;
56319;SDS011;42226;42.382;23.748;2023-07-13T10:22:10;9.75;;;5.57;;
56319;SDS011;42226;42.382;23.748;2023-07-13T10:24:56;6.88;;;5.30;;
56319;SDS011;42226;42.382;23.748;2023-07-13T10:27:33;6.20;;;5.13;;
56319;SDS011;42226;42.382;23.748;2023-07-13T10:32:57;9.48;;;6.18;;
56319;SDS011;42226;42.382;23.748;2023-07-13T10:35:27;9.32;;;6.15;;
56319;SDS011;42226;42.382;23.748;2023-07-13T10:37:59;14.48;;;5.72;;
56319;SDS011;42226;42.382;23.748;2023-07-13T10:40:36;6.68;;;5.05;;
56319;SDS011;42226;42.382;23.748;2023-07-13T10:43:22;9.57;;;4.72;;
56319;SDS011;42226;42.382;23.748;2023-07-13T10:46:03;6.87;;;4.90;;
56319;SDS011;42226;42.382;23.748;2023-07-13T10:48:33;9.25;;;5.60;;
56319;SDS011;42226;42.382;23.748;2023-07-13T10:51:03;7.10;;;4.97;;
56319;SDS011;42226;42.382;23.748;2023-07-13T10:53:33;8.38;;;5.35;;
56319;SDS011;42226;42.382;23.748;2023-07-13T10:56:03;8.70;;;4.75;;
56319;SDS011;42226;42.382;23.748;2023-07-13T10:58:43;8.45;;;4.80;;
56319;SDS011;42226;42.382;23.748;2023-07-13T11:01:17;10.98;;;5.53;;
56319;SDS011;42226;42.382;23.748;2023-07-13T11:06:34;8.13;;;5.78;;
56319;SDS011;42226;42.382;23.748;2023-07-13T11:12:26;9.15;;;5.50;;
56319;SDS011;42226;42.382;23.748;2023-07-13T11:15:43;7.40;;;5.97;;
56319;SDS011;42226;42.382;23.748;2023-07-13T11:18:20;7.45;;;5.70;;
56319;SDS011;42226;42.382;23.748;2023-07-13T11:20:51;7.18;;;5.72;;
56319;SDS011;42226;42.382;23.748;2023-07-13T11:23:37;7.88;;;6.10;;
56319;SDS011;42226;42.382;23.748;2023-07-13T11:29:40;7.47;;;6.07;;
56319;SDS011;42226;42.382;23.748;2023-07-13T11:35:04;9.27;;;5.50;;
56319;SDS011;42226;42.382;23.748;2023-07-13T11:37:35;10.00;;;5.80;;
56319;SDS011;42226;42.382;23.748;2023-07-13T11:40:05;7.00;;;5.88;;
56319;SDS011;42226;42.382;23.748;2023-07-13T11:42:39;15.10;;;6.72;;
56319;SDS011;42226;42.382;23.748;2023-07-13T11:45:18;6.93;;;6.20;;
56319;SDS011;42226;42.382;23.748;2023-07-13T11:47:49;9.00;;;5.80;;
56319;SDS011;42226;42.382;23.748;2023-07-13T11:50:20;11.48;;;5.63;;
56319;SDS011;42226;42.382;23.748;2023-07-13T11:52:50;8.65;;;5.72;;
56319;SDS011;42226;42.382;23.748;2023-07-13T11:55:22;10.32;;;5.63;;
56319;SDS011;42226;42.382;23.748;2023-07-13T12:00:29;8.60;;;6.18;;
56319;SDS011;42226;42.382;23.748;2023-07-13T12:03:02;9.00;;;5.90;;
56319;SDS011;42226;42.382;23.748;2023-07-13T12:05:31;9.13;;;5.50;;
56319;SDS011;42226;42.382;23.748;2023-07-13T12:07:58;14.07;;;6.70;;
56319;SDS011;42226;42.382;23.748;2023-07-13T12:10:34;7.43;;;5.10;;
56319;SDS011;42226;42.382;23.748;2023-07-13T12:13:02;9.38;;;5.40;;
56319;SDS011;42226;42.382;23.748;2023-07-13T12:21:05;7.80;;;5.80;;
56319;SDS011;42226;42.382;23.748;2023-07-13T14:54:12;10.02;;;6.32;;
56319;SDS011;42226;42.382;23.748;2023-07-13T14:56:39;7.00;;;5.68;;
56319;SDS011;42226;42.382;23.748;2023-07-13T14:59:06;10.80;;;6.57;;
56319;SDS011;42226;42.382;23.748;2023-07-13T15:01:36;13.23;;;6.88;;
56319;SDS011;42226;42.382;23.748;2023-07-13T15:04:04;9.57;;;6.35;;
56319;SDS011;42226;42.382;23.748;2023-07-13T15:06:35;12.60;;;6.43;;
56319;SDS011;42226;42.382;23.748;2023-07-13T15:09:29;10.45;;;6.35;;
56319;SDS011;42226;42.382;23.748;2023-07-13T15:11:56;10.73;;;6.28;;
56319;SDS011;42226;42.382;23.748;2023-07-13T15:14:25;9.18;;;6.55;;
56319;SDS011;42226;42.382;23.748;2023-07-13T15:16:54;10.38;;;6.55;;
56319;SDS011;42226;42.382;23.748;2023-07-13T15:19:22;7.75;;;5.90;;
56319;SDS011;42226;42.382;23.748;2023-07-13T15:21:50;10.20;;;5.78;;
56319;SDS011;42226;42.382;23.748;2023-07-13T15:24:20;9.52;;;6.22;;
56319;SDS011;42226;42.382;23.748;2023-07-13T15:26:48;8.32;;;5.88;;
56319;SDS011;42226;42.382;23.748;2023-07-13T15:29:15;10.75;;;5.80;;
56319;SDS011;42226;42.382;23.748;2023-07-13T15:31:45;9.88;;;5.90;;
56319;SDS011;42226;42.382;23.748;2023-07-13T15:34:12;8.93;;;6.40;;
56319;SDS011;42226;42.382;23.748;2023-07-13T15:36:50;10.57;;;5.95;;
56319;SDS011;42226;42.382;23.748;2023-07-13T15:39:17;8.95;;;6.15;;
56319;SDS011;42226;42.382;23.748;2023-07-13T15:41:46;9.52;;;6.47;;
56319;SDS011;42226;42.382;23.748;2023-07-13T15:44:22;9.35;;;6.10;;
56319;SDS011;42226;42.382;23.748;2023-07-13T15:46:57;9.52;;;6.18;;
56319;SDS011;42226;42.382;23.748;2023-07-13T15:49:26;9.52;;;6.03;;
56319;SDS011;42226;42.382;23.748;2023-07-13T15:51:52;8.48;;;6.15;;
56319;SDS011;42226;42.382;23.748;2023-07-13T15:54:19;9.77;;;6.28;;
56319;SDS011;42226;42.382;23.748;2023-07-13T15:56:50;8.85;;;6.10;;
56319;SDS011;42226;42.382;23.748;2023-07-13T15:59:19;9.57;;;6.20;;
56319;SDS011;42226;42.382;23.748;2023-07-13T16:01:48;15.88;;;6.07;;
56319;SDS011;42226;42.382;23.748;2023-07-13T16:04:16;7.45;;;5.85;;
56319;SDS011;42226;42.382;23.748;2023-07-13T16:06:45;11.90;;;6.13;;
56319;SDS011;42226;42.382;23.748;2023-07-13T16:09:20;10.45;;;5.90;;
56319;SDS011;42226;42.382;23.748;2023-07-13T16:11:52;7.47;;;5.90;;
56319;SDS011;42226;42.382;23.748;2023-07-13T16:14:22;12.18;;;6.40;;
56319;SDS011;42226;42.382;23.748;2023-07-13T16:16:51;10.07;;;6.30;;
56319;SDS011;42226;42.382;23.748;2023-07-13T16:19:20;8.63;;;6.15;;
56319;SDS011;42226;42.382;23.748;2023-07-13T16:21:54;8.18;;;5.90;;
56319;SDS011;42226;42.382;23.748;2023-07-13T16:24:21;11.05;;;6.40;;
56319;SDS011;42226;42.382;23.748;2023-07-13T16:26:52;10.10;;;5.97;;
56319;SDS011;42226;42.382;23.748;2023-07-13T16:29:22;9.00;;;5.95;;
56319;SDS011;42226;42.382;23.748;2023-07-13T16:32:06;10.38;;;6.22;;
56319;SDS011;42226;42.382;23.748;2023-07-13T16:34:43;10.15;;;6.13;;
56319;SDS011;42226;42.382;23.748;2023-07-13T16:37:20;11.95;;;6.30;;
56319;SDS011;42226;42.382;23.748;2023-07-13T16:39:55;9.43;;;5.97;;
56319;SDS011;42226;42.382;23.748;2023-07-13T16:44:52;10.90;;;6.25;;
56319;SDS011;42226;42.382;23.748;2023-07-13T16:47:19;10.20;;;6.13;;
56319;SDS011;42226;42.382;23.748;2023-07-13T16:49:49;10.10;;;6.30;;
56319;SDS011;42226;42.382;23.748;2023-07-13T16:52:17;8.57;;;5.78;;
56319;SDS011;42226;42.382;23.748;2023-07-13T16:54:48;9.15;;;6.00;;
56319;SDS011;42226;42.382;23.748;2023-07-13T16:57:21;13.35;;;6.38;;
56319;SDS011;42226;42.382;23.748;2023-07-13T16:59:56;23.30;;;7.22;;
56319;SDS011;42226;42.382;23.748;2023-07-13T17:05:02;12.63;;;6.03;;
56319;SDS011;42226;42.382;23.748;2023-07-13T17:07:31;14.15;;;6.53;;
56319;SDS011;42226;42.382;23.748;2023-07-13T17:10:00;9.18;;;5.80;;
56319;SDS011;42226;42.382;23.748;2023-07-13T17:12:28;8.70;;;6.22;;
56319;SDS011;42226;42.382;23.748;2023-07-13T17:14:54;7.43;;;6.00;;
56319;SDS011;42226;42.382;23.748;2023-07-13T17:17:26;13.02;;;6.35;;
56319;SDS011;42226;42.382;23.748;2023-07-13T17:20:00;11.98;;;6.53;;
56319;SDS011;42226;42.382;23.748;2023-07-13T17:22:28;10.48;;;6.03;;
56319;SDS011;42226;42.382;23.748;2023-07-13T17:27:57;10.15;;;6.05;;
56319;SDS011;42226;42.382;23.748;2023-07-13T17:30:23;9.52;;;5.90;;
56319;SDS011;42226;42.382;23.748;2023-07-13T17:32:51;8.43;;;4.95;;
56319;SDS011;42226;42.382;23.748;2023-07-13T17:37:56;14.13;;;6.93;;
56319;SDS011;42226;42.382;23.748;2023-07-13T17:40:25;10.02;;;5.85;;
56319;SDS011;42226;42.382;23.748;2023-07-13T17:42:54;7.63;;;5.68;;
56319;SDS011;42226;42.382;23.748;2023-07-13T17:45:22;9.45;;;6.20;;
56319;SDS011;42226;42.382;23.748;2023-07-13T17:47:52;9.93;;;5.72;;
56319;SDS011;42226;42.382;23.748;2023-07-13T17:50:27;9.50;;;5.88;;
56319;SDS011;42226;42.382;23.748;2023-07-13T17:53:05;7.45;;;5.88;;
56319;SDS011;42226;42.382;23.748;2023-07-13T17:55:43;15.68;;;6.45;;
56319;SDS011;42226;42.382;23.748;2023-07-13T17:58:14;13.73;;;6.57;;
56319;SDS011;42226;42.382;23.748;2023-07-13T18:00:42;12.70;;;6.75;;
56319;SDS011;42226;42.382;23.748;2023-07-13T18:03:25;9.00;;;5.78;;
56319;SDS011;42226;42.382;23.748;2023-07-13T18:06:08;9.70;;;6.63;;
56319;SDS011;42226;42.382;23.748;2023-07-13T18:08:50;9.02;;;5.82;;
56319;SDS011;42226;42.382;23.748;2023-07-13T18:11:22;8.75;;;5.90;;
56319;SDS011;42226;42.382;23.748;2023-07-13T18:13:50;11.38;;;6.20;;
56319;SDS011;42226;42.382;23.748;2023-07-13T18:16:22;9.07;;;5.40;;
56319;SDS011;42226;42.382;23.748;2023-07-13T18:18:53;9.80;;;5.90;;
56319;SDS011;42226;42.382;23.748;2023-07-13T18:24:28;11.55;;;6.40;;
56319;SDS011;42226;42.382;23.748;2023-07-13T18:26:57;9.52;;;6.22;;
56319;SDS011;42226;42.382;23.748;2023-07-13T18:29:24;8.82;;;6.35;;
56319;SDS011;42226;42.382;23.748;2023-07-13T18:31:52;11.15;;;6.20;;
56319;SDS011;42226;42.382;23.748;2023-07-13T18:37:23;8.60;;;6.53;;
56319;SDS011;42226;42.382;23.748;2023-07-13T18:39:52;9.20;;;5.95;;
56319;SDS011;42226;42.382;23.748;2023-07-13T18:42:19;12.57;;;6.50;;
56319;SDS011;42226;42.382;23.748;2023-07-13T18:44:49;10.52;;;6.20;;
56319;SDS011;42226;42.382;23.748;2023-07-13T18:47:19;11.85;;;6.68;;
56319;SDS011;42226;42.382;23.748;2023-07-13T18:49:47;9.93;;;6.40;;
56319;SDS011;42226;42.382;23.748;2023-07-13T18:52:19;7.25;;;6.20;;
56319;SDS011;42226;42.382;23.748;2023-07-13T18:54:47;8.70;;;6.20;;
56319;SDS011;42226;42.382;23.748;2023-07-13T18:57:17;7.30;;;6.15;;
56319;SDS011;42226;42.382;23.748;2023-07-13T18:59:46;10.23;;;6.80;;
56319;SDS011;42226;42.382;23.748;2023-07-13T19:02:14;9.40;;;6.45;;
56319;SDS011;42226;42.382;23.748;2023-07-13T19:04:44;7.28;;;6.38;;
56319;SDS011;42226;42.382;23.748;2023-07-13T19:07:13;8.98;;;6.20;;
56319;SDS011;42226;42.382;23.748;2023-07-13T19:09:39;8.38;;;6.78;;
56319;SDS011;42226;42.382;23.748;2023-07-13T19:12:24;11.43;;;6.55;;
56319;SDS011;42226;42.382;23.748;2023-07-13T19:14:54;8.90;;;6.78;;
56319;SDS011;42226;42.382;23.748;2023-07-13T19:17:23;7.88;;;6.70;;